Portada
METAR-TAF:

METAR-TAF

Aeropuertos :

Tenerife, España

Aeropuerto de Tenerife Norte

latitud: 28-28N, longitud: 016-19W, altitud: 632 m

Observación

El informe se hizo hace 25 minutos, a las 22:30 UTC
Viento 7 kt del oeste
Temperatura 24°C
Humedad 38%
Presión 1019 hPa
Visibilidad 10 km o más

METAR: GCXO 202230Z AUTO 26007KT 9999 NCD 24/09 Q1019

Hora: 23:55 (22:55 UTC)

Pronóstico

El informe se hizo hace 2 horas y 55 minutos, a las 20:00 UTC
Pronóstico válido del 20 a las 21 UTC al 21 a las 21 UTC
Viento 8 kt del oeste
Visibilidad 10 km o más
Escasas nubes a una altura de 500 ft
Evolucionando progresivamente
del 20 a las 21 UTC al 20 a las 23 UTC
Viento 5 kt con dirección variable
Evolucionando progresivamente
del 21 a las 08 UTC al 21 a las 10 UTC
Viento 10 kt del sureste

TAF: GCXO 202000Z 2021/2121 26008KT 9999 FEW005 TX31/2113Z TN19/2106Z BECMG 2021/2023 VRB05KT BECMG 2108/2110 13010KT

Observaciones y pronósticos meteorológicos de más de 4000 aeropuertos (mensajes METAR y TAF).

Los puntos amarillos y rojos representan las estaciones disponibles.

Ponga el ratón en el punto deseado para ver el nombre de la estación.

Haga clic para ver las observaciones y los pronósticos meteorológicos.

Para cambiar el mapa : haga clic en los botones verdes con una cruz de color negro para hacer un zoom, en el botón verde con un guión para alejar o en las flechas verdes para mapas adyacentes.


METAR-TAF: